sensor_id;sensor_type;location;lat;lon;timestamp;P1;durP1;ratioP1;P2;durP2;ratioP2
71125;SDS011;58785;55.566;38.058;2023-08-17T00:01:56;22.75;;;9.73;;
71125;SDS011;58785;55.566;38.058;2023-08-17T00:04:21;19.50;;;9.47;;
71125;SDS011;58785;55.566;38.058;2023-08-17T00:06:47;20.92;;;9.43;;
71125;SDS011;58785;55.566;38.058;2023-08-17T00:09:13;19.37;;;9.07;;
71125;SDS011;58785;55.566;38.058;2023-08-17T00:11:39;20.77;;;10.38;;
71125;SDS011;58785;55.566;38.058;2023-08-17T00:14:05;22.60;;;10.15;;
71125;SDS011;58785;55.566;38.058;2023-08-17T00:16:30;20.47;;;9.87;;
71125;SDS011;58785;55.566;38.058;2023-08-17T00:18:56;19.52;;;10.50;;
71125;SDS011;58785;55.566;38.058;2023-08-17T00:21:22;21.60;;;10.38;;
71125;SDS011;58785;55.566;38.058;2023-08-17T00:23:48;27.48;;;10.73;;
71125;SDS011;58785;55.566;38.058;2023-08-17T00:26:14;27.63;;;11.77;;
71125;SDS011;58785;55.566;38.058;2023-08-17T00:28:40;26.35;;;12.20;;
71125;SDS011;58785;55.566;38.058;2023-08-17T00:31:06;26.45;;;12.90;;
71125;SDS011;58785;55.566;38.058;2023-08-17T00:33:32;24.37;;;12.87;;
71125;SDS011;58785;55.566;38.058;2023-08-17T00:35:57;24.67;;;13.13;;
71125;SDS011;58785;55.566;38.058;2023-08-17T00:38:23;26.73;;;13.57;;
71125;SDS011;58785;55.566;38.058;2023-08-17T00:40:49;26.30;;;13.70;;
71125;SDS011;58785;55.566;38.058;2023-08-17T00:43:15;29.67;;;15.93;;
71125;SDS011;58785;55.566;38.058;2023-08-17T00:45:41;31.47;;;17.37;;
71125;SDS011;58785;55.566;38.058;2023-08-17T00:48:07;34.90;;;18.33;;
71125;SDS011;58785;55.566;38.058;2023-08-17T00:50:34;36.53;;;16.75;;
71125;SDS011;58785;55.566;38.058;2023-08-17T00:53:01;31.15;;;15.68;;
71125;SDS011;58785;55.566;38.058;2023-08-17T00:55:28;35.30;;;15.57;;
71125;SDS011;58785;55.566;38.058;2023-08-17T00:57:55;30.67;;;16.52;;
71125;SDS011;58785;55.566;38.058;2023-08-17T01:00:22;28.55;;;16.52;;
71125;SDS011;58785;55.566;38.058;2023-08-17T01:02:49;31.45;;;17.38;;
71125;SDS011;58785;55.566;38.058;2023-08-17T01:05:16;30.27;;;16.75;;
71125;SDS011;58785;55.566;38.058;2023-08-17T01:07:42;30.47;;;16.83;;
71125;SDS011;58785;55.566;38.058;2023-08-17T01:10:08;33.50;;;16.35;;
71125;SDS011;58785;55.566;38.058;2023-08-17T01:12:39;28.50;;;16.30;;
71125;SDS011;58785;55.566;38.058;2023-08-17T01:17:56;29.37;;;16.30;;
71125;SDS011;58785;55.566;38.058;2023-08-17T01:20:30;32.03;;;16.80;;
71125;SDS011;58785;55.566;38.058;2023-08-17T01:23:02;34.35;;;16.98;;
71125;SDS011;58785;55.566;38.058;2023-08-17T01:25:36;31.00;;;16.15;;
71125;SDS011;58785;55.566;38.058;2023-08-17T01:28:03;35.37;;;16.10;;
71125;SDS011;58785;55.566;38.058;2023-08-17T01:30:30;32.38;;;16.70;;
71125;SDS011;58785;55.566;38.058;2023-08-17T01:33:48;28.08;;;16.20;;
71125;SDS011;58785;55.566;38.058;2023-08-17T01:36:30;32.40;;;15.93;;
71125;SDS011;58785;55.566;38.058;2023-08-17T01:39:01;26.33;;;14.85;;
71125;SDS011;58785;55.566;38.058;2023-08-17T01:41:29;32.63;;;15.37;;
71125;SDS011;58785;55.566;38.058;2023-08-17T01:43:56;31.88;;;14.75;;
71125;SDS011;58785;55.566;38.058;2023-08-17T01:46:24;30.40;;;15.02;;
71125;SDS011;58785;55.566;38.058;2023-08-17T01:48:54;30.90;;;14.88;;
71125;SDS011;58785;55.566;38.058;2023-08-17T01:51:21;28.58;;;14.88;;
71125;SDS011;58785;55.566;38.058;2023-08-17T01:53:47;24.83;;;14.17;;
71125;SDS011;58785;55.566;38.058;2023-08-17T01:56:13;26.85;;;14.57;;
71125;SDS011;58785;55.566;38.058;2023-08-17T01:58:39;25.50;;;13.68;;
71125;SDS011;58785;55.566;38.058;2023-08-17T02:01:05;26.87;;;14.10;;
71125;SDS011;58785;55.566;38.058;2023-08-17T02:03:30;24.15;;;13.55;;
71125;SDS011;58785;55.566;38.058;2023-08-17T02:05:57;26.70;;;14.10;;
71125;SDS011;58785;55.566;38.058;2023-08-17T02:08:23;26.20;;;13.20;;
71125;SDS011;58785;55.566;38.058;2023-08-17T02:10:49;23.23;;;12.60;;
71125;SDS011;58785;55.566;38.058;2023-08-17T02:13:15;26.02;;;14.48;;
71125;SDS011;58785;55.566;38.058;2023-08-17T02:15:41;25.70;;;13.88;;
71125;SDS011;58785;55.566;38.058;2023-08-17T02:18:07;25.00;;;13.97;;
71125;SDS011;58785;55.566;38.058;2023-08-17T02:20:33;28.63;;;14.13;;
71125;SDS011;58785;55.566;38.058;2023-08-17T02:22:59;27.63;;;13.82;;
71125;SDS011;58785;55.566;38.058;2023-08-17T02:25:25;27.07;;;13.33;;
71125;SDS011;58785;55.566;38.058;2023-08-17T02:27:52;27.60;;;13.60;;
71125;SDS011;58785;55.566;38.058;2023-08-17T02:30:18;26.95;;;14.48;;
71125;SDS011;58785;55.566;38.058;2023-08-17T02:32:44;33.05;;;14.13;;
71125;SDS011;58785;55.566;38.058;2023-08-17T02:35:09;29.80;;;14.57;;
71125;SDS011;58785;55.566;38.058;2023-08-17T02:37:35;28.30;;;14.00;;
71125;SDS011;58785;55.566;38.058;2023-08-17T02:40:01;26.40;;;14.18;;
71125;SDS011;58785;55.566;38.058;2023-08-17T02:42:30;27.97;;;14.10;;
71125;SDS011;58785;55.566;38.058;2023-08-17T02:44:55;26.27;;;13.70;;
71125;SDS011;58785;55.566;38.058;2023-08-17T02:47:21;24.50;;;12.93;;
71125;SDS011;58785;55.566;38.058;2023-08-17T02:49:47;25.58;;;13.30;;
71125;SDS011;58785;55.566;38.058;2023-08-17T02:52:14;24.58;;;12.48;;
71125;SDS011;58785;55.566;38.058;2023-08-17T02:54:40;21.20;;;11.47;;
71125;SDS011;58785;55.566;38.058;2023-08-17T02:57:06;23.33;;;11.60;;
71125;SDS011;58785;55.566;38.058;2023-08-17T02:59:31;24.67;;;11.40;;
71125;SDS011;58785;55.566;38.058;2023-08-17T03:01:57;20.30;;;11.05;;
71125;SDS011;58785;55.566;38.058;2023-08-17T03:04:23;20.17;;;10.50;;
71125;SDS011;58785;55.566;38.058;2023-08-17T03:06:49;22.52;;;10.80;;
71125;SDS011;58785;55.566;38.058;2023-08-17T03:09:15;19.35;;;10.13;;
71125;SDS011;58785;55.566;38.058;2023-08-17T03:11:40;22.07;;;10.17;;
71125;SDS011;58785;55.566;38.058;2023-08-17T03:14:06;21.33;;;9.80;;
71125;SDS011;58785;55.566;38.058;2023-08-17T03:16:32;19.50;;;10.27;;
71125;SDS011;58785;55.566;38.058;2023-08-17T03:18:57;21.20;;;10.23;;
71125;SDS011;58785;55.566;38.058;2023-08-17T03:21:23;17.80;;;9.60;;
71125;SDS011;58785;55.566;38.058;2023-08-17T03:23:49;18.80;;;10.30;;
71125;SDS011;58785;55.566;38.058;2023-08-17T03:26:15;23.43;;;11.60;;
71125;SDS011;58785;55.566;38.058;2023-08-17T03:28:41;20.40;;;11.15;;
71125;SDS011;58785;55.566;38.058;2023-08-17T03:31:07;20.13;;;11.30;;
71125;SDS011;58785;55.566;38.058;2023-08-17T03:33:36;22.92;;;11.32;;
71125;SDS011;58785;55.566;38.058;2023-08-17T03:36:02;20.90;;;11.07;;
71125;SDS011;58785;55.566;38.058;2023-08-17T03:38:28;26.00;;;11.67;;
71125;SDS011;58785;55.566;38.058;2023-08-17T03:40:54;26.67;;;12.27;;
71125;SDS011;58785;55.566;38.058;2023-08-17T03:43:20;20.27;;;11.07;;
71125;SDS011;58785;55.566;38.058;2023-08-17T03:45:46;21.03;;;10.63;;
71125;SDS011;58785;55.566;38.058;2023-08-17T03:48:11;25.00;;;11.60;;
71125;SDS011;58785;55.566;38.058;2023-08-17T03:50:38;16.97;;;11.03;;
71125;SDS011;58785;55.566;38.058;2023-08-17T03:53:03;21.30;;;10.77;;
71125;SDS011;58785;55.566;38.058;2023-08-17T03:55:29;21.38;;;10.40;;
71125;SDS011;58785;55.566;38.058;2023-08-17T03:57:55;19.38;;;10.63;;
71125;SDS011;58785;55.566;38.058;2023-08-17T04:00:21;21.27;;;10.70;;
71125;SDS011;58785;55.566;38.058;2023-08-17T04:02:47;20.80;;;11.37;;
71125;SDS011;58785;55.566;38.058;2023-08-17T04:05:12;20.13;;;11.57;;
71125;SDS011;58785;55.566;38.058;2023-08-17T04:07:38;20.33;;;11.03;;
71125;SDS011;58785;55.566;38.058;2023-08-17T04:10:07;20.92;;;11.60;;
71125;SDS011;58785;55.566;38.058;2023-08-17T04:12:33;20.80;;;10.33;;
71125;SDS011;58785;55.566;38.058;2023-08-17T04:14:59;17.25;;;9.68;;
71125;SDS011;58785;55.566;38.058;2023-08-17T04:17:25;21.80;;;10.70;;
71125;SDS011;58785;55.566;38.058;2023-08-17T04:19:51;22.13;;;10.05;;
71125;SDS011;58785;55.566;38.058;2023-08-17T04:22:17;19.60;;;11.90;;
71125;SDS011;58785;55.566;38.058;2023-08-17T04:24:43;17.90;;;10.50;;
71125;SDS011;58785;55.566;38.058;2023-08-17T04:27:09;20.08;;;10.60;;
71125;SDS011;58785;55.566;38.058;2023-08-17T04:29:35;18.93;;;10.70;;
71125;SDS011;58785;55.566;38.058;2023-08-17T04:32:01;20.52;;;10.32;;
71125;SDS011;58785;55.566;38.058;2023-08-17T04:34:27;19.92;;;10.93;;
71125;SDS011;58785;55.566;38.058;2023-08-17T04:36:53;16.73;;;9.87;;
71125;SDS011;58785;55.566;38.058;2023-08-17T04:39:18;20.08;;;11.00;;
71125;SDS011;58785;55.566;38.058;2023-08-17T04:41:44;22.97;;;10.93;;
71125;SDS011;58785;55.566;38.058;2023-08-17T04:44:09;16.63;;;8.97;;
71125;SDS011;58785;55.566;38.058;2023-08-17T04:46:35;15.98;;;9.88;;
71125;SDS011;58785;55.566;38.058;2023-08-17T04:49:01;16.48;;;9.88;;
71125;SDS011;58785;55.566;38.058;2023-08-17T04:51:29;16.97;;;9.40;;
71125;SDS011;58785;55.566;38.058;2023-08-17T04:53:54;17.15;;;9.73;;
71125;SDS011;58785;55.566;38.058;2023-08-17T04:56:20;18.40;;;9.88;;
71125;SDS011;58785;55.566;38.058;2023-08-17T04:58:46;18.67;;;9.57;;
71125;SDS011;58785;55.566;38.058;2023-08-17T05:01:11;21.42;;;9.45;;
71125;SDS011;58785;55.566;38.058;2023-08-17T05:03:37;14.73;;;9.53;;
71125;SDS011;58785;55.566;38.058;2023-08-17T05:06:03;17.52;;;9.80;;
71125;SDS011;58785;55.566;38.058;2023-08-17T05:08:29;18.40;;;9.82;;
71125;SDS011;58785;55.566;38.058;2023-08-17T05:10:54;23.17;;;9.73;;
71125;SDS011;58785;55.566;38.058;2023-08-17T05:13:20;17.00;;;8.60;;
71125;SDS011;58785;55.566;38.058;2023-08-17T05:15:46;17.10;;;9.47;;
71125;SDS011;58785;55.566;38.058;2023-08-17T05:18:12;16.50;;;9.70;;
71125;SDS011;58785;55.566;38.058;2023-08-17T05:20:37;16.53;;;9.17;;
71125;SDS011;58785;55.566;38.058;2023-08-17T05:23:03;15.25;;;9.10;;
71125;SDS011;58785;55.566;38.058;2023-08-17T05:25:29;13.45;;;7.93;;
71125;SDS011;58785;55.566;38.058;2023-08-17T05:27:55;13.97;;;8.20;;
71125;SDS011;58785;55.566;38.058;2023-08-17T05:30:20;13.25;;;7.97;;
71125;SDS011;58785;55.566;38.058;2023-08-17T05:32:46;14.63;;;8.50;;
71125;SDS011;58785;55.566;38.058;2023-08-17T05:35:12;14.68;;;8.13;;
71125;SDS011;58785;55.566;38.058;2023-08-17T05:37:38;15.97;;;8.70;;
71125;SDS011;58785;55.566;38.058;2023-08-17T05:40:04;14.20;;;8.23;;
71125;SDS011;58785;55.566;38.058;2023-08-17T05:42:31;13.98;;;8.98;;
71125;SDS011;58785;55.566;38.058;2023-08-17T05:44:57;13.43;;;7.53;;
71125;SDS011;58785;55.566;38.058;2023-08-17T05:47:23;13.52;;;7.20;;
71125;SDS011;58785;55.566;38.058;2023-08-17T05:49:49;13.18;;;7.43;;
71125;SDS011;58785;55.566;38.058;2023-08-17T05:52:15;14.05;;;8.18;;
71125;SDS011;58785;55.566;38.058;2023-08-17T05:54:41;11.93;;;7.40;;
71125;SDS011;58785;55.566;38.058;2023-08-17T05:57:07;11.75;;;6.47;;
71125;SDS011;58785;55.566;38.058;2023-08-17T05:59:33;17.90;;;7.57;;
71125;SDS011;58785;55.566;38.058;2023-08-17T06:02:00;12.77;;;6.33;;
71125;SDS011;58785;55.566;38.058;2023-08-17T06:04:30;10.15;;;6.10;;
71125;SDS011;58785;55.566;38.058;2023-08-17T06:06:55;11.68;;;7.50;;
71125;SDS011;58785;55.566;38.058;2023-08-17T06:09:21;13.73;;;7.90;;
71125;SDS011;58785;55.566;38.058;2023-08-17T06:11:50;13.20;;;7.72;;
71125;SDS011;58785;55.566;38.058;2023-08-17T06:14:21;12.95;;;8.20;;
71125;SDS011;58785;55.566;38.058;2023-08-17T06:16:53;12.10;;;7.22;;
71125;SDS011;58785;55.566;38.058;2023-08-17T06:19:22;11.50;;;6.70;;
71125;SDS011;58785;55.566;38.058;2023-08-17T06:21:47;12.53;;;6.40;;
71125;SDS011;58785;55.566;38.058;2023-08-17T06:24:13;10.50;;;5.37;;
71125;SDS011;58785;55.566;38.058;2023-08-17T06:26:39;10.07;;;4.78;;
71125;SDS011;58785;55.566;38.058;2023-08-17T06:29:04;10.80;;;5.15;;
71125;SDS011;58785;55.566;38.058;2023-08-17T06:31:30;10.93;;;5.20;;
71125;SDS011;58785;55.566;38.058;2023-08-17T06:33:56;9.27;;;5.15;;
71125;SDS011;58785;55.566;38.058;2023-08-17T06:36:22;13.70;;;4.90;;
71125;SDS011;58785;55.566;38.058;2023-08-17T06:38:48;8.47;;;5.03;;
71125;SDS011;58785;55.566;38.058;2023-08-17T06:41:13;12.05;;;5.03;;
71125;SDS011;58785;55.566;38.058;2023-08-17T06:43:39;8.60;;;4.37;;
71125;SDS011;58785;55.566;38.058;2023-08-17T06:46:05;6.97;;;4.15;;
71125;SDS011;58785;55.566;38.058;2023-08-17T06:48:30;8.10;;;3.47;;
71125;SDS011;58785;55.566;38.058;2023-08-17T06:50:57;9.45;;;3.20;;
71125;SDS011;58785;55.566;38.058;2023-08-17T06:53:23;5.43;;;2.83;;
71125;SDS011;58785;55.566;38.058;2023-08-17T06:55:49;6.77;;;2.90;;
71125;SDS011;58785;55.566;38.058;2023-08-17T06:58:14;8.95;;;2.78;;
71125;SDS011;58785;55.566;38.058;2023-08-17T07:00:40;7.57;;;2.70;;
71125;SDS011;58785;55.566;38.058;2023-08-17T07:03:06;5.47;;;2.97;;
71125;SDS011;58785;55.566;38.058;2023-08-17T07:05:32;5.45;;;2.30;;
71125;SDS011;58785;55.566;38.058;2023-08-17T07:07:58;5.13;;;2.65;;
71125;SDS011;58785;55.566;38.058;2023-08-17T07:10:24;6.10;;;2.80;;
71125;SDS011;58785;55.566;38.058;2023-08-17T07:12:50;5.63;;;2.80;;
71125;SDS011;58785;55.566;38.058;2023-08-17T07:15:16;6.90;;;3.10;;
71125;SDS011;58785;55.566;38.058;2023-08-17T07:17:42;6.17;;;2.80;;
71125;SDS011;58785;55.566;38.058;2023-08-17T07:20:08;6.03;;;2.53;;
71125;SDS011;58785;55.566;38.058;2023-08-17T07:22:35;5.70;;;2.80;;
71125;SDS011;58785;55.566;38.058;2023-08-17T07:25:00;7.13;;;2.97;;
71125;SDS011;58785;55.566;38.058;2023-08-17T07:27:26;6.50;;;2.27;;
71125;SDS011;58785;55.566;38.058;2023-08-17T07:29:52;6.60;;;3.33;;
71125;SDS011;58785;55.566;38.058;2023-08-17T07:32:18;6.03;;;3.00;;
71125;SDS011;58785;55.566;38.058;2023-08-17T07:34:47;5.80;;;2.78;;
71125;SDS011;58785;55.566;38.058;2023-08-17T07:37:13;7.38;;;3.00;;
71125;SDS011;58785;55.566;38.058;2023-08-17T07:39:39;5.67;;;3.00;;
71125;SDS011;58785;55.566;38.058;2023-08-17T07:42:04;5.78;;;2.97;;
71125;SDS011;58785;55.566;38.058;2023-08-17T07:44:30;8.00;;;2.87;;
71125;SDS011;58785;55.566;38.058;2023-08-17T07:47:00;7.00;;;2.90;;
71125;SDS011;58785;55.566;38.058;2023-08-17T07:49:27;7.53;;;3.03;;
71125;SDS011;58785;55.566;38.058;2023-08-17T07:51:54;8.30;;;2.70;;
71125;SDS011;58785;55.566;38.058;2023-08-17T07:54:19;7.50;;;2.95;;
71125;SDS011;58785;55.566;38.058;2023-08-17T07:56:45;6.37;;;2.70;;
71125;SDS011;58785;55.566;38.058;2023-08-17T07:59:11;5.82;;;2.30;;
71125;SDS011;58785;55.566;38.058;2023-08-17T08:01:36;6.37;;;2.53;;
71125;SDS011;58785;55.566;38.058;2023-08-17T08:04:02;5.70;;;2.33;;
71125;SDS011;58785;55.566;38.058;2023-08-17T08:06:28;7.25;;;2.88;;
71125;SDS011;58785;55.566;38.058;2023-08-17T08:08:53;6.50;;;2.80;;
71125;SDS011;58785;55.566;38.058;2023-08-17T08:11:21;11.57;;;3.30;;
71125;SDS011;58785;55.566;38.058;2023-08-17T08:13:47;8.30;;;2.70;;
71125;SDS011;58785;55.566;38.058;2023-08-17T08:16:13;8.13;;;2.90;;
71125;SDS011;58785;55.566;38.058;2023-08-17T08:18:38;5.87;;;2.77;;
71125;SDS011;58785;55.566;38.058;2023-08-17T08:21:04;5.43;;;2.60;;
71125;SDS011;58785;55.566;38.058;2023-08-17T08:23:30;8.97;;;2.70;;
71125;SDS011;58785;55.566;38.058;2023-08-17T08:25:55;6.25;;;2.50;;
71125;SDS011;58785;55.566;38.058;2023-08-17T08:28:23;7.18;;;2.83;;
71125;SDS011;58785;55.566;38.058;2023-08-17T08:30:50;5.88;;;3.08;;
71125;SDS011;58785;55.566;38.058;2023-08-17T08:33:16;5.80;;;2.90;;
71125;SDS011;58785;55.566;38.058;2023-08-17T08:35:42;8.05;;;2.80;;
71125;SDS011;58785;55.566;38.058;2023-08-17T08:38:08;5.67;;;2.53;;
71125;SDS011;58785;55.566;38.058;2023-08-17T08:40:33;6.00;;;2.70;;
71125;SDS011;58785;55.566;38.058;2023-08-17T08:43:02;7.90;;;3.20;;
71125;SDS011;58785;55.566;38.058;2023-08-17T08:45:28;5.43;;;2.80;;
71125;SDS011;58785;55.566;38.058;2023-08-17T08:47:56;5.18;;;2.70;;
71125;SDS011;58785;55.566;38.058;2023-08-17T08:50:25;5.30;;;2.40;;
71125;SDS011;58785;55.566;38.058;2023-08-17T08:52:58;5.70;;;2.33;;
71125;SDS011;58785;55.566;38.058;2023-08-17T08:55:26;6.00;;;3.22;;
71125;SDS011;58785;55.566;38.058;2023-08-17T08:57:54;6.93;;;2.93;;
71125;SDS011;58785;55.566;38.058;2023-08-17T09:00:21;8.00;;;2.90;;
71125;SDS011;58785;55.566;38.058;2023-08-17T09:02:48;5.25;;;2.60;;
71125;SDS011;58785;55.566;38.058;2023-08-17T09:05:14;6.15;;;3.08;;
71125;SDS011;58785;55.566;38.058;2023-08-17T09:07:42;7.10;;;2.70;;
71125;SDS011;58785;55.566;38.058;2023-08-17T09:10:08;6.43;;;2.83;;
71125;SDS011;58785;55.566;38.058;2023-08-17T09:12:35;6.50;;;2.80;;
71125;SDS011;58785;55.566;38.058;2023-08-17T09:15:01;6.00;;;2.67;;
71125;SDS011;58785;55.566;38.058;2023-08-17T09:17:27;7.63;;;2.50;;
71125;SDS011;58785;55.566;38.058;2023-08-17T09:19:54;8.68;;;3.10;;
71125;SDS011;58785;55.566;38.058;2023-08-17T09:22:38;5.55;;;2.67;;
71125;SDS011;58785;55.566;38.058;2023-08-17T09:25:09;6.95;;;2.92;;
71125;SDS011;58785;55.566;38.058;2023-08-17T09:27:36;5.70;;;2.87;;
71125;SDS011;58785;55.566;38.058;2023-08-17T09:30:09;5.90;;;2.97;;
71125;SDS011;58785;55.566;38.058;2023-08-17T09:32:36;5.75;;;2.90;;
71125;SDS011;58785;55.566;38.058;2023-08-17T09:35:03;8.00;;;2.85;;
71125;SDS011;58785;55.566;38.058;2023-08-17T09:37:32;6.03;;;2.72;;
71125;SDS011;58785;55.566;38.058;2023-08-17T09:39:58;5.85;;;2.63;;
71125;SDS011;58785;55.566;38.058;2023-08-17T09:42:24;6.73;;;2.87;;
71125;SDS011;58785;55.566;38.058;2023-08-17T09:44:51;6.30;;;2.97;;
71125;SDS011;58785;55.566;38.058;2023-08-17T09:47:18;5.93;;;3.10;;
71125;SDS011;58785;55.566;38.058;2023-08-17T09:49:48;6.45;;;3.22;;
71125;SDS011;58785;55.566;38.058;2023-08-17T09:52:15;6.32;;;2.70;;
71125;SDS011;58785;55.566;38.058;2023-08-17T09:54:40;8.27;;;2.93;;
71125;SDS011;58785;55.566;38.058;2023-08-17T09:57:06;6.20;;;2.85;;
71125;SDS011;58785;55.566;38.058;2023-08-17T09:59:34;5.90;;;3.03;;
71125;SDS011;58785;55.566;38.058;2023-08-17T10:01:59;6.32;;;2.70;;
71125;SDS011;58785;55.566;38.058;2023-08-17T10:04:26;7.13;;;3.30;;
71125;SDS011;58785;55.566;38.058;2023-08-17T10:07:02;14.80;;;3.58;;
71125;SDS011;58785;55.566;38.058;2023-08-17T10:09:36;7.38;;;3.33;;
71125;SDS011;58785;55.566;38.058;2023-08-17T10:12:09;7.60;;;3.15;;
71125;SDS011;58785;55.566;38.058;2023-08-17T10:14:39;5.85;;;3.35;;
71125;SDS011;58785;55.566;38.058;2023-08-17T10:17:11;5.90;;;2.70;;
71125;SDS011;58785;55.566;38.058;2023-08-17T10:19:51;6.80;;;2.57;;
71125;SDS011;58785;55.566;38.058;2023-08-17T10:24:55;7.57;;;3.03;;
71125;SDS011;58785;55.566;38.058;2023-08-17T10:27:25;5.70;;;3.00;;
71125;SDS011;58785;55.566;38.058;2023-08-17T10:29:52;6.72;;;3.45;;
71125;SDS011;58785;55.566;38.058;2023-08-17T10:32:20;7.73;;;3.00;;
71125;SDS011;58785;55.566;38.058;2023-08-17T10:34:47;6.27;;;3.27;;
71125;SDS011;58785;55.566;38.058;2023-08-17T10:37:14;6.38;;;2.60;;
71125;SDS011;58785;55.566;38.058;2023-08-17T10:39:47;8.07;;;3.15;;
71125;SDS011;58785;55.566;38.058;2023-08-17T10:42:14;6.03;;;3.05;;
71125;SDS011;58785;55.566;38.058;2023-08-17T10:44:41;6.53;;;3.40;;
71125;SDS011;58785;55.566;38.058;2023-08-17T10:52:31;6.40;;;3.22;;
71125;SDS011;58785;55.566;38.058;2023-08-17T10:55:03;5.55;;;2.97;;
71125;SDS011;58785;55.566;38.058;2023-08-17T10:57:31;6.72;;;3.00;;
71125;SDS011;58785;55.566;38.058;2023-08-17T11:02:56;5.63;;;3.07;;
71125;SDS011;58785;55.566;38.058;2023-08-17T11:13:30;6.40;;;3.03;;
71125;SDS011;58785;55.566;38.058;2023-08-17T11:15:57;7.60;;;2.80;;
71125;SDS011;58785;55.566;38.058;2023-08-17T11:18:24;5.67;;;2.87;;
71125;SDS011;58785;55.566;38.058;2023-08-17T11:20:50;7.57;;;2.78;;
71125;SDS011;58785;55.566;38.058;2023-08-17T11:23:16;6.38;;;2.97;;
71125;SDS011;58785;55.566;38.058;2023-08-17T11:25:43;5.78;;;3.17;;
71125;SDS011;58785;55.566;38.058;2023-08-17T11:28:09;5.88;;;2.60;;
71125;SDS011;58785;55.566;38.058;2023-08-17T11:30:35;7.57;;;2.97;;
71125;SDS011;58785;55.566;38.058;2023-08-17T11:33:04;6.45;;;3.22;;
71125;SDS011;58785;55.566;38.058;2023-08-17T11:35:31;8.15;;;3.30;;
71125;SDS011;58785;55.566;38.058;2023-08-17T11:37:57;7.57;;;3.28;;
71125;SDS011;58785;55.566;38.058;2023-08-17T11:40:24;6.80;;;3.33;;
71125;SDS011;58785;55.566;38.058;2023-08-17T11:42:51;7.43;;;3.50;;
71125;SDS011;58785;55.566;38.058;2023-08-17T11:45:17;7.60;;;3.30;;
71125;SDS011;58785;55.566;38.058;2023-08-17T11:47:44;7.05;;;2.78;;
71125;SDS011;58785;55.566;38.058;2023-08-17T11:50:12;8.10;;;2.90;;
71125;SDS011;58785;55.566;38.058;2023-08-17T11:52:40;6.95;;;3.10;;
71125;SDS011;58785;55.566;38.058;2023-08-17T11:55:06;5.82;;;3.50;;
71125;SDS011;58785;55.566;38.058;2023-08-17T11:57:35;6.43;;;3.03;;
71125;SDS011;58785;55.566;38.058;2023-08-17T12:00:02;6.30;;;3.05;;
71125;SDS011;58785;55.566;38.058;2023-08-17T12:02:32;6.15;;;3.20;;
71125;SDS011;58785;55.566;38.058;2023-08-17T12:05:03;7.10;;;2.95;;
71125;SDS011;58785;55.566;38.058;2023-08-17T12:07:32;6.43;;;2.70;;
71125;SDS011;58785;55.566;38.058;2023-08-17T12:09:58;5.80;;;2.93;;
71125;SDS011;58785;55.566;38.058;2023-08-17T12:12:24;9.27;;;3.10;;
71125;SDS011;58785;55.566;38.058;2023-08-17T12:14:50;6.00;;;2.88;;
71125;SDS011;58785;55.566;38.058;2023-08-17T12:17:16;6.13;;;3.10;;
71125;SDS011;58785;55.566;38.058;2023-08-17T12:19:43;7.90;;;2.60;;
71125;SDS011;58785;55.566;38.058;2023-08-17T12:22:09;7.65;;;2.95;;
71125;SDS011;58785;55.566;38.058;2023-08-17T12:24:38;7.13;;;2.88;;
71125;SDS011;58785;55.566;38.058;2023-08-17T12:27:07;6.53;;;3.60;;
71125;SDS011;58785;55.566;38.058;2023-08-17T12:29:33;7.33;;;3.13;;
71125;SDS011;58785;55.566;38.058;2023-08-17T12:32:00;7.60;;;3.37;;
71125;SDS011;58785;55.566;38.058;2023-08-17T12:34:26;6.95;;;3.17;;
71125;SDS011;58785;55.566;38.058;2023-08-17T12:36:52;8.13;;;3.20;;
71125;SDS011;58785;55.566;38.058;2023-08-17T12:39:18;7.80;;;3.23;;
71125;SDS011;58785;55.566;38.058;2023-08-17T12:41:44;7.38;;;3.40;;
71125;SDS011;58785;55.566;38.058;2023-08-17T12:44:09;6.43;;;2.97;;
71125;SDS011;58785;55.566;38.058;2023-08-17T12:46:41;7.03;;;3.10;;
71125;SDS011;58785;55.566;38.058;2023-08-17T12:49:07;6.60;;;3.45;;
71125;SDS011;58785;55.566;38.058;2023-08-17T12:51:33;7.97;;;3.60;;
71125;SDS011;58785;55.566;38.058;2023-08-17T12:53:59;8.87;;;3.40;;
71125;SDS011;58785;55.566;38.058;2023-08-17T12:56:24;7.93;;;2.92;;
71125;SDS011;58785;55.566;38.058;2023-08-17T12:58:50;7.80;;;3.13;;
71125;SDS011;58785;55.566;38.058;2023-08-17T13:01:16;8.23;;;3.30;;
71125;SDS011;58785;55.566;38.058;2023-08-17T13:03:43;6.65;;;3.13;;
71125;SDS011;58785;55.566;38.058;2023-08-17T13:06:09;6.47;;;2.80;;
71125;SDS011;58785;55.566;38.058;2023-08-17T13:08:35;6.82;;;3.70;;
71125;SDS011;58785;55.566;38.058;2023-08-17T13:11:00;7.53;;;3.30;;
71125;SDS011;58785;55.566;38.058;2023-08-17T13:13:26;7.78;;;3.30;;
71125;SDS011;58785;55.566;38.058;2023-08-17T13:15:52;7.77;;;3.30;;
71125;SDS011;58785;55.566;38.058;2023-08-17T13:18:18;8.13;;;3.97;;
71125;SDS011;58785;55.566;38.058;2023-08-17T13:20:43;5.95;;;3.60;;
71125;SDS011;58785;55.566;38.058;2023-08-17T13:23:10;9.10;;;3.00;;
71125;SDS011;58785;55.566;38.058;2023-08-17T13:25:36;7.32;;;3.40;;
71125;SDS011;58785;55.566;38.058;2023-08-17T13:28:02;6.82;;;3.10;;
71125;SDS011;58785;55.566;38.058;2023-08-17T13:30:28;12.05;;;3.33;;
71125;SDS011;58785;55.566;38.058;2023-08-17T13:32:55;6.60;;;3.57;;
71125;SDS011;58785;55.566;38.058;2023-08-17T13:35:21;6.72;;;3.45;;
71125;SDS011;58785;55.566;38.058;2023-08-17T13:37:51;7.70;;;4.05;;
71125;SDS011;58785;55.566;38.058;2023-08-17T13:40:20;6.45;;;3.38;;
71125;SDS011;58785;55.566;38.058;2023-08-17T13:42:46;6.87;;;3.70;;
71125;SDS011;58785;55.566;38.058;2023-08-17T13:45:12;6.03;;;3.20;;
71125;SDS011;58785;55.566;38.058;2023-08-17T13:47:37;8.53;;;3.73;;
71125;SDS011;58785;55.566;38.058;2023-08-17T13:50:03;5.87;;;3.60;;
71125;SDS011;58785;55.566;38.058;2023-08-17T13:52:29;7.88;;;3.63;;
71125;SDS011;58785;55.566;38.058;2023-08-17T13:54:55;6.38;;;3.10;;
71125;SDS011;58785;55.566;38.058;2023-08-17T13:57:21;6.20;;;3.10;;
71125;SDS011;58785;55.566;38.058;2023-08-17T13:59:47;7.00;;;3.42;;
71125;SDS011;58785;55.566;38.058;2023-08-17T14:02:12;7.20;;;3.37;;
71125;SDS011;58785;55.566;38.058;2023-08-17T14:04:38;7.75;;;3.80;;
71125;SDS011;58785;55.566;38.058;2023-08-17T14:07:04;8.83;;;3.20;;
71125;SDS011;58785;55.566;38.058;2023-08-17T14:09:30;6.80;;;3.45;;
71125;SDS011;58785;55.566;38.058;2023-08-17T14:11:55;10.23;;;3.80;;
71125;SDS011;58785;55.566;38.058;2023-08-17T14:14:21;7.30;;;3.47;;
71125;SDS011;58785;55.566;38.058;2023-08-17T14:16:47;6.50;;;3.25;;
71125;SDS011;58785;55.566;38.058;2023-08-17T14:19:12;6.70;;;3.20;;
71125;SDS011;58785;55.566;38.058;2023-08-17T14:21:38;7.43;;;3.30;;
71125;SDS011;58785;55.566;38.058;2023-08-17T14:24:04;7.23;;;3.27;;
71125;SDS011;58785;55.566;38.058;2023-08-17T14:26:31;7.05;;;3.40;;
71125;SDS011;58785;55.566;38.058;2023-08-17T14:28:57;6.63;;;3.07;;
71125;SDS011;58785;55.566;38.058;2023-08-17T14:31:23;6.38;;;3.17;;
71125;SDS011;58785;55.566;38.058;2023-08-17T14:33:48;6.33;;;3.10;;
71125;SDS011;58785;55.566;38.058;2023-08-17T14:36:14;6.60;;;3.40;;
71125;SDS011;58785;55.566;38.058;2023-08-17T14:38:41;5.97;;;3.28;;
71125;SDS011;58785;55.566;38.058;2023-08-17T14:41:07;7.33;;;3.70;;
71125;SDS011;58785;55.566;38.058;2023-08-17T14:43:33;7.75;;;3.53;;